sensor_id;sensor_type;location;lat;lon;timestamp;temperature;humidity
70271;SHT31;57680;54.292;18.598;2023-09-19T00:00:18;19.32;80.73
70271;SHT31;57680;54.292;18.598;2023-09-19T00:02:43;19.34;81.16
70271;SHT31;57680;54.292;18.598;2023-09-19T00:05:09;19.33;81.59
70271;SHT31;57680;54.292;18.598;2023-09-19T00:07:34;19.24;83.28
70271;SHT31;57680;54.292;18.598;2023-09-19T00:09:59;19.15;82.99
70271;SHT31;57680;54.292;18.598;2023-09-19T00:12:24;19.11;82.78
70271;SHT31;57680;54.292;18.598;2023-09-19T00:14:50;19.11;82.49
70271;SHT31;57680;54.292;18.598;2023-09-19T00:17:15;19.12;82.45
70271;SHT31;57680;54.292;18.598;2023-09-19T00:19:40;19.11;82.20
70271;SHT31;57680;54.292;18.598;2023-09-19T00:22:06;19.15;82.16
70271;SHT31;57680;54.292;18.598;2023-09-19T00:24:31;19.16;82.09
70271;SHT31;57680;54.292;18.598;2023-09-19T00:26:56;19.24;81.84
70271;SHT31;57680;54.292;18.598;2023-09-19T00:29:22;19.26;81.86
70271;SHT31;57680;54.292;18.598;2023-09-19T00:31:47;19.30;81.59
70271;SHT31;57680;54.292;18.598;2023-09-19T00:34:12;19.27;81.54
70271;SHT31;57680;54.292;18.598;2023-09-19T00:36:38;19.24;81.61
70271;SHT31;57680;54.292;18.598;2023-09-19T00:39:03;19.26;81.76
70271;SHT31;57680;54.292;18.598;2023-09-19T00:41:28;19.26;81.73
70271;SHT31;57680;54.292;18.598;2023-09-19T00:43:53;19.24;82.15
70271;SHT31;57680;54.292;18.598;2023-09-19T00:46:19;19.22;82.32
70271;SHT31;57680;54.292;18.598;2023-09-19T00:48:45;19.16;82.40
70271;SHT31;57680;54.292;18.598;2023-09-19T00:51:10;19.11;82.89
70271;SHT31;57680;54.292;18.598;2023-09-19T00:53:36;19.06;83.30
70271;SHT31;57680;54.292;18.598;2023-09-19T00:56:03;19.01;83.42
70271;SHT31;57680;54.292;18.598;2023-09-19T00:58:28;18.96;83.64
70271;SHT31;57680;54.292;18.598;2023-09-19T01:00:54;18.95;83.50
70271;SHT31;57680;54.292;18.598;2023-09-19T01:03:20;18.95;83.41
70271;SHT31;57680;54.292;18.598;2023-09-19T01:05:45;18.94;83.36
70271;SHT31;57680;54.292;18.598;2023-09-19T01:08:11;18.96;83.66
70271;SHT31;57680;54.292;18.598;2023-09-19T01:10:39;18.95;83.75
70271;SHT31;57680;54.292;18.598;2023-09-19T01:13:22;18.92;83.93
70271;SHT31;57680;54.292;18.598;2023-09-19T01:16:03;18.88;84.25
70271;SHT31;57680;54.292;18.598;2023-09-19T01:22:29;18.76;84.99
70271;SHT31;57680;54.292;18.598;2023-09-19T01:29:48;18.61;85.69
70271;SHT31;57680;54.292;18.598;2023-09-19T01:32:19;18.55;85.67
70271;SHT31;57680;54.292;18.598;2023-09-19T01:34:48;18.55;85.66
70271;SHT31;57680;54.292;18.598;2023-09-19T01:37:17;18.55;85.83
70271;SHT31;57680;54.292;18.598;2023-09-19T01:39:43;18.62;85.46
70271;SHT31;57680;54.292;18.598;2023-09-19T01:45:20;18.68;85.59
70271;SHT31;57680;54.292;18.598;2023-09-19T01:47:51;18.72;85.39
70271;SHT31;57680;54.292;18.598;2023-09-19T01:50:27;18.78;85.48
70271;SHT31;57680;54.292;18.598;2023-09-19T01:52:59;18.82;85.14
70271;SHT31;57680;54.292;18.598;2023-09-19T01:55:26;18.89;85.04
70271;SHT31;57680;54.292;18.598;2023-09-19T01:58:23;18.89;84.99
70271;SHT31;57680;54.292;18.598;2023-09-19T02:00:51;18.91;85.40
70271;SHT31;57680;54.292;18.598;2023-09-19T02:03:18;18.89;85.43
70271;SHT31;57680;54.292;18.598;2023-09-19T02:05:52;18.88;85.62
70271;SHT31;57680;54.292;18.598;2023-09-19T02:08:18;18.81;85.82
70271;SHT31;57680;54.292;18.598;2023-09-19T02:10:44;18.81;86.11
70271;SHT31;57680;54.292;18.598;2023-09-19T02:13:09;18.85;86.22
70271;SHT31;57680;54.292;18.598;2023-09-19T02:15:35;18.91;86.48
70271;SHT31;57680;54.292;18.598;2023-09-19T02:18:00;18.91;86.37
70271;SHT31;57680;54.292;18.598;2023-09-19T02:20:25;18.99;86.23
70271;SHT31;57680;54.292;18.598;2023-09-19T02:22:51;19.06;86.17
70271;SHT31;57680;54.292;18.598;2023-09-19T02:25:16;19.13;86.02
70271;SHT31;57680;54.292;18.598;2023-09-19T02:27:42;19.18;85.77
70271;SHT31;57680;54.292;18.598;2023-09-19T02:30:07;19.20;85.47
70271;SHT31;57680;54.292;18.598;2023-09-19T02:32:32;19.26;85.28
70271;SHT31;57680;54.292;18.598;2023-09-19T02:34:58;19.24;85.48
70271;SHT31;57680;54.292;18.598;2023-09-19T02:37:23;19.26;85.40
70271;SHT31;57680;54.292;18.598;2023-09-19T02:39:48;19.23;85.56
70271;SHT31;57680;54.292;18.598;2023-09-19T02:42:14;19.22;85.60
70271;SHT31;57680;54.292;18.598;2023-09-19T02:44:39;19.16;85.61
70271;SHT31;57680;54.292;18.598;2023-09-19T02:47:04;19.24;84.88
70271;SHT31;57680;54.292;18.598;2023-09-19T02:49:29;19.27;84.66
70271;SHT31;57680;54.292;18.598;2023-09-19T02:51:55;19.36;84.04
70271;SHT31;57680;54.292;18.598;2023-09-19T02:54:20;19.26;84.13
70271;SHT31;57680;54.292;18.598;2023-09-19T02:56:45;19.26;84.33
70271;SHT31;57680;54.292;18.598;2023-09-19T02:59:11;19.19;84.70
70271;SHT31;57680;54.292;18.598;2023-09-19T03:01:36;19.16;84.87
70271;SHT31;57680;54.292;18.598;2023-09-19T03:04:02;19.09;85.35
70271;SHT31;57680;54.292;18.598;2023-09-19T03:06:27;19.08;85.55
70271;SHT31;57680;54.292;18.598;2023-09-19T03:08:52;19.03;85.49
70271;SHT31;57680;54.292;18.598;2023-09-19T03:11:18;18.96;85.78
70271;SHT31;57680;54.292;18.598;2023-09-19T03:13:43;18.94;86.10
70271;SHT31;57680;54.292;18.598;2023-09-19T03:16:08;18.89;86.46
70271;SHT31;57680;54.292;18.598;2023-09-19T03:18:34;18.82;86.81
70271;SHT31;57680;54.292;18.598;2023-09-19T03:21:00;18.76;86.89
70271;SHT31;57680;54.292;18.598;2023-09-19T03:23:26;18.79;86.72
70271;SHT31;57680;54.292;18.598;2023-09-19T03:25:51;18.76;86.64
70271;SHT31;57680;54.292;18.598;2023-09-19T03:28:16;18.76;87.06
70271;SHT31;57680;54.292;18.598;2023-09-19T03:30:42;18.71;87.20
70271;SHT31;57680;54.292;18.598;2023-09-19T03:33:07;18.65;87.34
70271;SHT31;57680;54.292;18.598;2023-09-19T03:35:32;18.64;87.81
70271;SHT31;57680;54.292;18.598;2023-09-19T03:37:58;18.58;88.01
70271;SHT31;57680;54.292;18.598;2023-09-19T03:40:23;18.57;88.47
70271;SHT31;57680;54.292;18.598;2023-09-19T03:42:48;18.52;88.80
70271;SHT31;57680;54.292;18.598;2023-09-19T03:45:14;18.48;89.59
70271;SHT31;57680;54.292;18.598;2023-09-19T03:47:39;18.44;89.74
70271;SHT31;57680;54.292;18.598;2023-09-19T03:50:05;18.41;89.85
70271;SHT31;57680;54.292;18.598;2023-09-19T03:52:31;18.38;90.78
70271;SHT31;57680;54.292;18.598;2023-09-19T03:54:56;18.31;90.88
70271;SHT31;57680;54.292;18.598;2023-09-19T03:57:21;18.30;91.26
70271;SHT31;57680;54.292;18.598;2023-09-19T03:59:47;18.26;91.60
70271;SHT31;57680;54.292;18.598;2023-09-19T04:02:12;18.18;91.99
70271;SHT31;57680;54.292;18.598;2023-09-19T04:04:37;18.16;92.04
70271;SHT31;57680;54.292;18.598;2023-09-19T04:07:03;18.13;92.16
70271;SHT31;57680;54.292;18.598;2023-09-19T04:09:28;18.10;92.30
70271;SHT31;57680;54.292;18.598;2023-09-19T04:11:53;18.06;92.49
70271;SHT31;57680;54.292;18.598;2023-09-19T04:14:19;18.06;92.72
70271;SHT31;57680;54.292;18.598;2023-09-19T04:16:44;18.04;93.00
70271;SHT31;57680;54.292;18.598;2023-09-19T04:19:10;18.00;93.58
70271;SHT31;57680;54.292;18.598;2023-09-19T04:21:35;17.93;94.07
70271;SHT31;57680;54.292;18.598;2023-09-19T04:24:00;17.87;94.15
70271;SHT31;57680;54.292;18.598;2023-09-19T04:26:26;17.85;94.13
70271;SHT31;57680;54.292;18.598;2023-09-19T04:28:51;17.83;94.19
70271;SHT31;57680;54.292;18.598;2023-09-19T04:31:16;17.82;94.17
70271;SHT31;57680;54.292;18.598;2023-09-19T04:33:41;17.83;94.16
70271;SHT31;57680;54.292;18.598;2023-09-19T04:36:07;17.81;94.16
70271;SHT31;57680;54.292;18.598;2023-09-19T04:38:32;17.82;94.26
70271;SHT31;57680;54.292;18.598;2023-09-19T04:40:57;17.82;94.38
70271;SHT31;57680;54.292;18.598;2023-09-19T04:43:23;17.82;94.49
70271;SHT31;57680;54.292;18.598;2023-09-19T04:45:48;17.81;94.64
70271;SHT31;57680;54.292;18.598;2023-09-19T04:48:14;17.81;94.76
70271;SHT31;57680;54.292;18.598;2023-09-19T04:50:39;17.79;94.86
70271;SHT31;57680;54.292;18.598;2023-09-19T04:53:04;17.76;94.99
70271;SHT31;57680;54.292;18.598;2023-09-19T04:55:30;17.75;94.98
70271;SHT31;57680;54.292;18.598;2023-09-19T04:57:55;17.76;95.03
70271;SHT31;57680;54.292;18.598;2023-09-19T05:00:21;17.73;95.16
70271;SHT31;57680;54.292;18.598;2023-09-19T05:02:52;17.75;95.32
70271;SHT31;57680;54.292;18.598;2023-09-19T05:05:17;17.72;95.50
70271;SHT31;57680;54.292;18.598;2023-09-19T05:07:43;17.72;95.57
70271;SHT31;57680;54.292;18.598;2023-09-19T05:10:08;17.73;95.70
70271;SHT31;57680;54.292;18.598;2023-09-19T05:12:35;17.75;95.78
70271;SHT31;57680;54.292;18.598;2023-09-19T05:15:00;17.75;95.79
70271;SHT31;57680;54.292;18.598;2023-09-19T05:17:26;17.79;95.89
70271;SHT31;57680;54.292;18.598;2023-09-19T05:19:51;17.82;95.88
70271;SHT31;57680;54.292;18.598;2023-09-19T05:22:16;17.83;95.93
70271;SHT31;57680;54.292;18.598;2023-09-19T05:24:41;17.83;95.98
70271;SHT31;57680;54.292;18.598;2023-09-19T05:27:07;17.83;96.06
70271;SHT31;57680;54.292;18.598;2023-09-19T05:29:32;17.79;96.08
70271;SHT31;57680;54.292;18.598;2023-09-19T05:31:57;17.81;96.12
70271;SHT31;57680;54.292;18.598;2023-09-19T05:34:23;17.82;96.13
70271;SHT31;57680;54.292;18.598;2023-09-19T05:36:48;17.81;96.24
70271;SHT31;57680;54.292;18.598;2023-09-19T05:39:13;17.82;96.25
70271;SHT31;57680;54.292;18.598;2023-09-19T05:41:39;17.79;96.42
70271;SHT31;57680;54.292;18.598;2023-09-19T05:44:04;17.83;96.53
70271;SHT31;57680;54.292;18.598;2023-09-19T05:46:29;17.87;96.57
70271;SHT31;57680;54.292;18.598;2023-09-19T05:48:55;17.99;96.49
70271;SHT31;57680;54.292;18.598;2023-09-19T05:51:21;18.06;96.18
70271;SHT31;57680;54.292;18.598;2023-09-19T05:53:46;18.12;96.00
70271;SHT31;57680;54.292;18.598;2023-09-19T05:56:11;18.23;95.99
70271;SHT31;57680;54.292;18.598;2023-09-19T05:58:36;18.29;95.64
70271;SHT31;57680;54.292;18.598;2023-09-19T06:01:02;18.37;95.52
70271;SHT31;57680;54.292;18.598;2023-09-19T06:03:27;18.57;95.28
70271;SHT31;57680;54.292;18.598;2023-09-19T06:05:52;18.55;94.61
70271;SHT31;57680;54.292;18.598;2023-09-19T06:08:18;18.48;94.74
70271;SHT31;57680;54.292;18.598;2023-09-19T06:10:43;18.41;94.88
70271;SHT31;57680;54.292;18.598;2023-09-19T06:13:08;18.36;95.19
70271;SHT31;57680;54.292;18.598;2023-09-19T06:15:34;18.37;95.40
70271;SHT31;57680;54.292;18.598;2023-09-19T06:17:59;18.41;95.48
70271;SHT31;57680;54.292;18.598;2023-09-19T06:20:25;18.45;95.37
70271;SHT31;57680;54.292;18.598;2023-09-19T06:22:52;18.54;95.38
70271;SHT31;57680;54.292;18.598;2023-09-19T06:25:17;18.62;95.04
70271;SHT31;57680;54.292;18.598;2023-09-19T06:27:42;18.58;94.64
70271;SHT31;57680;54.292;18.598;2023-09-19T06:30:09;18.57;94.49
70271;SHT31;57680;54.292;18.598;2023-09-19T06:32:35;18.57;94.25
70271;SHT31;57680;54.292;18.598;2023-09-19T06:35:00;18.68;93.71
70271;SHT31;57680;54.292;18.598;2023-09-19T06:37:29;18.78;93.55
70271;SHT31;57680;54.292;18.598;2023-09-19T06:39:55;18.98;93.21
70271;SHT31;57680;54.292;18.598;2023-09-19T06:42:20;19.11;92.52
70271;SHT31;57680;54.292;18.598;2023-09-19T06:44:45;19.15;92.12
70271;SHT31;57680;54.292;18.598;2023-09-19T06:47:11;19.16;91.71
70271;SHT31;57680;54.292;18.598;2023-09-19T06:49:36;19.12;91.33
70271;SHT31;57680;54.292;18.598;2023-09-19T06:52:02;19.16;91.32
70271;SHT31;57680;54.292;18.598;2023-09-19T06:54:28;19.16;91.36
70271;SHT31;57680;54.292;18.598;2023-09-19T06:56:53;19.19;91.33
70271;SHT31;57680;54.292;18.598;2023-09-19T06:59:19;19.16;91.38
70271;SHT31;57680;54.292;18.598;2023-09-19T07:01:44;19.20;91.12
70271;SHT31;57680;54.292;18.598;2023-09-19T07:04:09;19.24;90.75
70271;SHT31;57680;54.292;18.598;2023-09-19T07:06:35;19.27;90.24
70271;SHT31;57680;54.292;18.598;2023-09-19T07:09:00;19.26;90.35
70271;SHT31;57680;54.292;18.598;2023-09-19T07:11:25;19.27;89.45
70271;SHT31;57680;54.292;18.598;2023-09-19T07:13:50;19.33;89.60
70271;SHT31;57680;54.292;18.598;2023-09-19T07:16:16;19.36;89.49
70271;SHT31;57680;54.292;18.598;2023-09-19T07:18:41;19.53;89.52
70271;SHT31;57680;54.292;18.598;2023-09-19T07:21:06;19.66;88.76
70271;SHT31;57680;54.292;18.598;2023-09-19T07:23:32;19.88;88.77
70271;SHT31;57680;54.292;18.598;2023-09-19T07:25:57;20.01;87.53
70271;SHT31;57680;54.292;18.598;2023-09-19T07:28:22;20.14;87.20
70271;SHT31;57680;54.292;18.598;2023-09-19T07:30:48;20.32;86.71
70271;SHT31;57680;54.292;18.598;2023-09-19T07:33:13;20.42;85.69
70271;SHT31;57680;54.292;18.598;2023-09-19T07:35:39;20.36;86.14
70271;SHT31;57680;54.292;18.598;2023-09-19T07:38:04;20.33;86.01
70271;SHT31;57680;54.292;18.598;2023-09-19T07:40:29;20.28;85.98
70271;SHT31;57680;54.292;18.598;2023-09-19T07:42:55;20.25;86.25
70271;SHT31;57680;54.292;18.598;2023-09-19T07:45:20;20.12;85.62
70271;SHT31;57680;54.292;18.598;2023-09-19T07:47:47;19.97;85.91
70271;SHT31;57680;54.292;18.598;2023-09-19T07:50:14;19.87;85.30
70271;SHT31;57680;54.292;18.598;2023-09-19T07:52:39;19.78;85.94
70271;SHT31;57680;54.292;18.598;2023-09-19T07:55:06;19.77;86.82
70271;SHT31;57680;54.292;18.598;2023-09-19T07:57:31;19.74;87.14
70271;SHT31;57680;54.292;18.598;2023-09-19T07:59:56;19.67;86.36
70271;SHT31;57680;54.292;18.598;2023-09-19T08:02:22;19.69;87.20
70271;SHT31;57680;54.292;18.598;2023-09-19T08:04:47;19.67;86.40
70271;SHT31;57680;54.292;18.598;2023-09-19T08:07:12;19.61;86.20
70271;SHT31;57680;54.292;18.598;2023-09-19T08:09:38;19.63;86.01
70271;SHT31;57680;54.292;18.598;2023-09-19T08:12:04;19.57;86.38
70271;SHT31;57680;54.292;18.598;2023-09-19T08:14:29;19.57;86.50
70271;SHT31;57680;54.292;18.598;2023-09-19T08:16:58;19.56;86.83
70271;SHT31;57680;54.292;18.598;2023-09-19T08:19:23;19.64;86.78
70271;SHT31;57680;54.292;18.598;2023-09-19T08:21:49;19.77;85.55
70271;SHT31;57680;54.292;18.598;2023-09-19T08:24:14;20.05;85.16
70271;SHT31;57680;54.292;18.598;2023-09-19T08:26:39;20.69;83.74
70271;SHT31;57680;54.292;18.598;2023-09-19T08:29:05;21.32;82.12
70271;SHT31;57680;54.292;18.598;2023-09-19T08:31:30;21.81;80.00
70271;SHT31;57680;54.292;18.598;2023-09-19T08:33:55;21.93;78.09
70271;SHT31;57680;54.292;18.598;2023-09-19T08:36:21;21.63;78.42
70271;SHT31;57680;54.292;18.598;2023-09-19T08:38:46;21.47;78.82
70271;SHT31;57680;54.292;18.598;2023-09-19T08:41:11;21.54;77.93
70271;SHT31;57680;54.292;18.598;2023-09-19T08:43:37;21.50;78.15
70271;SHT31;57680;54.292;18.598;2023-09-19T08:48:31;21.23;79.33
70271;SHT31;57680;54.292;18.598;2023-09-19T08:51:12;21.04;78.84
70271;SHT31;57680;54.292;18.598;2023-09-19T08:53:43;21.20;78.74
70271;SHT31;57680;54.292;18.598;2023-09-19T08:56:13;21.57;77.64
70271;SHT31;57680;54.292;18.598;2023-09-19T08:58:48;21.69;76.28
70271;SHT31;57680;54.292;18.598;2023-09-19T09:01:15;22.16;75.58
70271;SHT31;57680;54.292;18.598;2023-09-19T09:03:42;22.71;73.78
70271;SHT31;57680;54.292;18.598;2023-09-19T09:06:08;22.94;73.06
70271;SHT31;57680;54.292;18.598;2023-09-19T09:08:33;23.26;71.60
70271;SHT31;57680;54.292;18.598;2023-09-19T09:10:59;23.32;70.64
70271;SHT31;57680;54.292;18.598;2023-09-19T09:13:24;23.46;71.02
70271;SHT31;57680;54.292;18.598;2023-09-19T09:15:49;23.59;69.92
70271;SHT31;57680;54.292;18.598;2023-09-19T09:18:15;23.30;69.97
70271;SHT31;57680;54.292;18.598;2023-09-19T09:20:40;23.12;70.87
70271;SHT31;57680;54.292;18.598;2023-09-19T09:23:05;23.33;70.98
70271;SHT31;57680;54.292;18.598;2023-09-19T09:25:50;23.19;69.41
70271;SHT31;57680;54.292;18.598;2023-09-19T09:28:20;23.02;71.05
70271;SHT31;57680;54.292;18.598;2023-09-19T09:30:46;23.29;70.23
70271;SHT31;57680;54.292;18.598;2023-09-19T09:33:12;23.55;70.20
70271;SHT31;57680;54.292;18.598;2023-09-19T09:35:47;23.41;68.02
70271;SHT31;57680;54.292;18.598;2023-09-19T09:38:13;23.59;69.85
70271;SHT31;57680;54.292;18.598;2023-09-19T09:40:49;23.14;68.09
70271;SHT31;57680;54.292;18.598;2023-09-19T09:43:33;23.42;68.81
70271;SHT31;57680;54.292;18.598;2023-09-19T09:48:36;22.97;69.08
70271;SHT31;57680;54.292;18.598;2023-09-19T09:51:01;22.53;69.34
70271;SHT31;57680;54.292;18.598;2023-09-19T09:53:28;22.49;70.73
70271;SHT31;57680;54.292;18.598;2023-09-19T09:56:07;22.46;70.82
70271;SHT31;57680;54.292;18.598;2023-09-19T09:58:37;22.80;69.67
70271;SHT31;57680;54.292;18.598;2023-09-19T10:01:04;22.49;68.99
70271;SHT31;57680;54.292;18.598;2023-09-19T10:03:34;22.63;68.32
70271;SHT31;57680;54.292;18.598;2023-09-19T10:06:00;22.56;68.24
70271;SHT31;57680;54.292;18.598;2023-09-19T10:08:25;22.41;69.10
70271;SHT31;57680;54.292;18.598;2023-09-19T10:10:51;22.23;70.58
70271;SHT31;57680;54.292;18.598;2023-09-19T10:13:16;22.13;70.25
70271;SHT31;57680;54.292;18.598;2023-09-19T10:15:43;21.90;70.65
70271;SHT31;57680;54.292;18.598;2023-09-19T10:18:10;21.66;70.91
70271;SHT31;57680;54.292;18.598;2023-09-19T10:20:39;21.59;71.44
70271;SHT31;57680;54.292;18.598;2023-09-19T10:23:07;21.52;72.17
70271;SHT31;57680;54.292;18.598;2023-09-19T10:25:36;21.45;71.35
70271;SHT31;57680;54.292;18.598;2023-09-19T10:28:02;21.52;69.75
70271;SHT31;57680;54.292;18.598;2023-09-19T10:30:28;21.61;70.67
70271;SHT31;57680;54.292;18.598;2023-09-19T10:33:01;21.78;70.76
70271;SHT31;57680;54.292;18.598;2023-09-19T10:35:27;21.75;69.80
70271;SHT31;57680;54.292;18.598;2023-09-19T10:37:54;21.85;69.83
70271;SHT31;57680;54.292;18.598;2023-09-19T10:40:22;21.75;69.92
70271;SHT31;57680;54.292;18.598;2023-09-19T10:42:48;21.71;69.89
70271;SHT31;57680;54.292;18.598;2023-09-19T10:45:16;21.59;69.25
70271;SHT31;57680;54.292;18.598;2023-09-19T10:47:42;22.03;68.66
70271;SHT31;57680;54.292;18.598;2023-09-19T10:50:07;22.44;66.84
70271;SHT31;57680;54.292;18.598;2023-09-19T10:52:33;22.87;66.23
70271;SHT31;57680;54.292;18.598;2023-09-19T10:55:02;23.07;66.03
70271;SHT31;57680;54.292;18.598;2023-09-19T10:57:28;22.98;65.54
70271;SHT31;57680;54.292;18.598;2023-09-19T11:00:06;22.91;63.28
70271;SHT31;57680;54.292;18.598;2023-09-19T11:02:32;23.19;63.92
70271;SHT31;57680;54.292;18.598;2023-09-19T11:05:11;23.45;62.91
70271;SHT31;57680;54.292;18.598;2023-09-19T11:07:58;23.37;64.14
70271;SHT31;57680;54.292;18.598;2023-09-19T11:10:46;22.94;64.46
70271;SHT31;57680;54.292;18.598;2023-09-19T11:13:28;22.83;63.32
70271;SHT31;57680;54.292;18.598;2023-09-19T11:26:44;22.57;62.03
70271;SHT31;57680;54.292;18.598;2023-09-19T11:29:25;22.51;59.32
70271;SHT31;57680;54.292;18.598;2023-09-19T11:31:51;22.53;59.00
70271;SHT31;57680;54.292;18.598;2023-09-19T11:37:00;22.77;59.53
70271;SHT31;57680;54.292;18.598;2023-09-19T11:39:26;22.81;60.43
70271;SHT31;57680;54.292;18.598;2023-09-19T11:41:51;22.74;59.27
70271;SHT31;57680;54.292;18.598;2023-09-19T11:49:17;22.92;59.22
70271;SHT31;57680;54.292;18.598;2023-09-19T11:51:43;23.05;59.46
70271;SHT31;57680;54.292;18.598;2023-09-19T11:54:13;22.98;59.12
70271;SHT31;57680;54.292;18.598;2023-09-19T11:56:40;22.87;58.48
70271;SHT31;57680;54.292;18.598;2023-09-19T11:59:06;22.65;58.56
70271;SHT31;57680;54.292;18.598;2023-09-19T12:01:33;22.50;58.06
70271;SHT31;57680;54.292;18.598;2023-09-19T12:03:59;22.49;57.39
70271;SHT31;57680;54.292;18.598;2023-09-19T12:06:26;22.54;56.29
70271;SHT31;57680;54.292;18.598;2023-09-19T12:08:52;22.81;55.42
70271;SHT31;57680;54.292;18.598;2023-09-19T12:11:17;22.86;54.09
70271;SHT31;57680;54.292;18.598;2023-09-19T12:13:44;23.11;53.34
70271;SHT31;57680;54.292;18.598;2023-09-19T12:16:16;23.23;53.30
70271;SHT31;57680;54.292;18.598;2023-09-19T12:18:42;23.05;54.43
70271;SHT31;57680;54.292;18.598;2023-09-19T12:21:08;22.75;55.11
70271;SHT31;57680;54.292;18.598;2023-09-19T12:23:33;22.56;56.55
70271;SHT31;57680;54.292;18.598;2023-09-19T12:26:01;22.49;57.41
70271;SHT31;57680;54.292;18.598;2023-09-19T12:28:27;22.33;57.68
70271;SHT31;57680;54.292;18.598;2023-09-19T12:30:53;22.26;58.70
70271;SHT31;57680;54.292;18.598;2023-09-19T12:33:19;22.28;58.83
70271;SHT31;57680;54.292;18.598;2023-09-19T12:35:45;22.24;59.68
70271;SHT31;57680;54.292;18.598;2023-09-19T12:38:10;22.22;58.98
70271;SHT31;57680;54.292;18.598;2023-09-19T12:40:35;22.05;59.39
70271;SHT31;57680;54.292;18.598;2023-09-19T12:43:01;22.00;59.42
70271;SHT31;57680;54.292;18.598;2023-09-19T12:45:27;21.83;59.95
70271;SHT31;57680;54.292;18.598;2023-09-19T12:48:24;22.08;60.71
70271;SHT31;57680;54.292;18.598;2023-09-19T12:51:10;22.26;60.24
70271;SHT31;57680;54.292;18.598;2023-09-19T12:53:36;22.50;61.25
70271;SHT31;57680;54.292;18.598;2023-09-19T12:56:02;22.72;59.79
70271;SHT31;57680;54.292;18.598;2023-09-19T12:58:28;22.88;58.53
70271;SHT31;57680;54.292;18.598;2023-09-19T13:00:53;22.86;57.42
70271;SHT31;57680;54.292;18.598;2023-09-19T13:03:26;22.78;56.93
70271;SHT31;57680;54.292;18.598;2023-09-19T13:05:56;22.70;57.32
70271;SHT31;57680;54.292;18.598;2023-09-19T13:08:31;22.43;58.12
70271;SHT31;57680;54.292;18.598;2023-09-19T13:11:04;22.49;59.28
70271;SHT31;57680;54.292;18.598;2023-09-19T13:13:29;22.32;59.26
70271;SHT31;57680;54.292;18.598;2023-09-19T13:15:55;22.36;60.75
70271;SHT31;57680;54.292;18.598;2023-09-19T13:18:20;22.35;59.29
70271;SHT31;57680;54.292;18.598;2023-09-19T13:21:06;22.39;58.20
70271;SHT31;57680;54.292;18.598;2023-09-19T13:23:31;22.50;56.23
70271;SHT31;57680;54.292;18.598;2023-09-19T13:25:56;22.56;56.54
70271;SHT31;57680;54.292;18.598;2023-09-19T13:28:22;22.64;57.10
70271;SHT31;57680;54.292;18.598;2023-09-19T13:30:47;22.80;55.53
70271;SHT31;57680;54.292;18.598;2023-09-19T13:33:12;22.75;56.59
70271;SHT31;57680;54.292;18.598;2023-09-19T13:35:40;22.68;55.40
70271;SHT31;57680;54.292;18.598;2023-09-19T13:38:06;22.60;54.95
70271;SHT31;57680;54.292;18.598;2023-09-19T13:40:32;22.64;55.99
70271;SHT31;57680;54.292;18.598;2023-09-19T13:42:57;22.70;53.86
70271;SHT31;57680;54.292;18.598;2023-09-19T13:45:22;22.56;53.01
70271;SHT31;57680;54.292;18.598;2023-09-19T13:47:48;22.46;54.85
70271;SHT31;57680;54.292;18.598;2023-09-19T13:50:13;22.19;55.35
70271;SHT31;57680;54.292;18.598;2023-09-19T13:52:39;22.09;56.12
70271;SHT31;57680;54.292;18.598;2023-09-19T13:55:05;21.95;56.47
70271;SHT31;57680;54.292;18.598;2023-09-19T13:57:30;21.95;56.48
70271;SHT31;57680;54.292;18.598;2023-09-19T13:59:55;22.05;57.27
70271;SHT31;57680;54.292;18.598;2023-09-19T14:02:22;21.93;56.69
70271;SHT31;57680;54.292;18.598;2023-09-19T14:04:47;21.93;57.19
70271;SHT31;57680;54.292;18.598;2023-09-19T14:07:12;21.83;57.41
70271;SHT31;57680;54.292;18.598;2023-09-19T14:09:38;21.93;58.56
70271;SHT31;57680;54.292;18.598;2023-09-19T14:12:03;21.92;58.16
70271;SHT31;57680;54.292;18.598;2023-09-19T14:14:29;21.79;58.20
70271;SHT31;57680;54.292;18.598;2023-09-19T14:16:54;21.58;58.44
70271;SHT31;57680;54.292;18.598;2023-09-19T14:19:19;21.45;58.21
70271;SHT31;57680;54.292;18.598;2023-09-19T14:21:44;21.40;57.12
70271;SHT31;57680;54.292;18.598;2023-09-19T14:24:10;21.35;58.21
70271;SHT31;57680;54.292;18.598;2023-09-19T14:26:35;21.20;58.60
70271;SHT31;57680;54.292;18.598;2023-09-19T14:29:01;21.11;59.25
70271;SHT31;57680;54.292;18.598;2023-09-19T14:31:26;21.19;58.40
70271;SHT31;57680;54.292;18.598;2023-09-19T14:33:56;21.10;60.73
70271;SHT31;57680;54.292;18.598;2023-09-19T14:36:22;21.15;61.43
70271;SHT31;57680;54.292;18.598;2023-09-19T14:38:47;21.19;63.16
70271;SHT31;57680;54.292;18.598;2023-09-19T14:41:12;21.26;63.02
70271;SHT31;57680;54.292;18.598;2023-09-19T14:43:38;21.23;62.81
70271;SHT31;57680;54.292;18.598;2023-09-19T14:46:06;21.07;64.23
70271;SHT31;57680;54.292;18.598;2023-09-19T14:48:31;21.08;64.23
70271;SHT31;57680;54.292;18.598;2023-09-19T14:51:02;21.15;64.89
70271;SHT31;57680;54.292;18.598;2023-09-19T14:53:27;20.99;64.22
70271;SHT31;57680;54.292;18.598;2023-09-19T14:55:52;20.90;64.36
70271;SHT31;57680;54.292;18.598;2023-09-19T14:58:18;20.83;64.25
70271;SHT31;57680;54.292;18.598;2023-09-19T15:00:43;20.68;64.87
70271;SHT31;57680;54.292;18.598;2023-09-19T15:03:08;20.51;65.31
70271;SHT31;57680;54.292;18.598;2023-09-19T15:05:34;20.41;65.96
70271;SHT31;57680;54.292;18.598;2023-09-19T15:07:59;20.36;66.37
70271;SHT31;57680;54.292;18.598;2023-09-19T15:10:24;20.31;66.07
70271;SHT31;57680;54.292;18.598;2023-09-19T15:12:50;20.33;64.93
70271;SHT31;57680;54.292;18.598;2023-09-19T15:15:15;20.21;66.03
70271;SHT31;57680;54.292;18.598;2023-09-19T15:17:41;20.20;65.82
70271;SHT31;57680;54.292;18.598;2023-09-19T15:20:07;20.10;66.53
70271;SHT31;57680;54.292;18.598;2023-09-19T15:22:33;20.17;66.13
70271;SHT31;57680;54.292;18.598;2023-09-19T15:24:58;20.11;65.92
70271;SHT31;57680;54.292;18.598;2023-09-19T15:27:24;20.05;66.03
70271;SHT31;57680;54.292;18.598;2023-09-19T15:29:49;20.10;65.62
70271;SHT31;57680;54.292;18.598;2023-09-19T15:32:14;20.11;65.86
70271;SHT31;57680;54.292;18.598;2023-09-19T15:34:40;19.90;66.17
70271;SHT31;57680;54.292;18.598;2023-09-19T15:37:05;19.81;66.09
70271;SHT31;57680;54.292;18.598;2023-09-19T15:39:30;19.70;66.12
70271;SHT31;57680;54.292;18.598;2023-09-19T15:41:55;19.66;65.56
70271;SHT31;57680;54.292;18.598;2023-09-19T15:44:21;19.60;65.13
70271;SHT31;57680;54.292;18.598;2023-09-19T15:46:46;19.61;64.73